Weather observations for the past three days for
Zapata, TX
Imperial (Metric)
Date Time (cdt) Wind (mph) Vis. (mi.) Weather Sky Cond. Temperature (ºF) Relative Humidity Wind Chill (°F) Heat Index (°F) Pressure Precipitation (in)
Air Dwpt 6 hour altimeter (in) sea level (mb) 1 hr 3 hr 6 hr
Max. Min.
06 07:15 E 3 3.00 Overcast with Haze OVC019 79.7 72.1 78% 83 29.74 0.0
06 06:55 E 3 5.00 Overcast with Haze OVC019 79.7 72 81 79.7 77% 83 29.74 0.0
06 06:35 Calm 5.00 Overcast with Haze OVC019 80.1 72 76% 84 29.73 0.0
06 06:15 Calm 5.00 Overcast with Haze OVC019 80.1 72 76% 84 29.73 0.0
06 05:55 SE 3 5.00 Overcast with Haze OVC019 80.1 71.8 76% 84 29.73 0.0
06 05:35 SE 3 5.00 Overcast with Haze OVC019 79.9 71.8 76% 84 29.72 0.0
06 05:15 E 5 5.00 Overcast with Haze OVC021 79.9 71.8 76% 84 29.71 0.0
06 04:55 SE 3 5.00 Overcast with Haze OVC021 79.9 71.8 76% 84 29.71 0.0
06 04:35 SE 6 7.00 Overcast OVC021 80.2 71.8 75% 84 29.71 0.0
06 04:15 SE 7 7.00 Overcast OVC019 80.4 71.8 75% 84 29.7 0.0
06 03:55 SE 7 7.00 Overcast OVC019 80.6 72 75% 85 29.7 0.0
06 03:35 SE 7 7.00 Overcast OVC019 80.6 72.1 76% 85 29.71 0.0
06 03:15 SE 7 7.00 Overcast OVC019 80.6 72 75% 85 29.71 0.0
06 02:55 SE 8 7.00 Overcast OVC019 80.6 72.1 76% 85 29.71 0.0
06 02:35 SE 9 G 20 7.00 Overcast OVC019 80.8 72.1 75% 85 29.71 0.0
06 02:15 SE 13 G 20 7.00 Overcast OVC019 80.8 72.1 75% 85 29.71 0.0
06 01:55 SE 8 7.00 Overcast OVC019 80.8 72.1 75% 85 29.71 0.0
06 01:35 SE 10 G 21 7.00 Overcast OVC019 80.8 72.1 75% 85 29.71 0.0
06 01:15 SE 12 G 17 7.00 Overcast OVC019 81 72.1 75% 85 29.71 0.0
06 00:55 SE 13 G 20 7.00 Overcast OVC019 81 72.1 96.3 80.6 75% 85 29.71 0.0
06 00:35 SE 14 G 20 7.00 Overcast OVC019 81.1 72.1 74% 86 29.71 0.0
06 00:15 SE 10 G 24 7.00 Overcast OVC019 81.1 72.1 74% 86 29.71 0.0
05 23:55 SE 12 G 18 7.00 Overcast OVC019 81 72.1 75% 85 29.72 0.0
05 23:35 SE 12 G 21 7.00 Mostly Cloudy BKN019 80.8 72 75% 85 29.72 0.0
05 23:15 SE 12 G 20 10.00 Fair CLR 80.8 72 75% 85 29.72 0.0
05 22:55 SE 14 G 23 10.00 Fair CLR 81.5 72 73% 86 29.71 0.0
05 22:35 SE 15 G 20 10.00 Fair CLR 82.4 72.1 71% 87 29.71 0.0
05 22:15 SE 14 G 21 10.00 Fair CLR 83.7 71.8 68% 89 29.7 0.0
05 21:55 SE 14 G 21 10.00 Fair CLR 85.1 71.8 64% 91 29.69 0.0
05 21:35 SE 15 G 20 10.00 Fair CLR 86 71.8 63% 92 29.68 0.0
05 21:15 SE 7 G 18 10.00 Fair CLR 86.9 71.8 61% 93 29.67 0.0
05 20:55 SE 13 G 23 10.00 Fair CLR 87.8 71.6 59% 94 29.65 0.0
05 20:35 SE 13 G 16 10.00 Fair CLR 88.9 71.6 57% 95 29.65 0.0
05 20:15 SE 13 G 20 10.00 Fair CLR 90.3 71.6 54% 97 29.63 0.0
05 19:55 SE 10 G 20 10.00 Fair CLR 91.9 70.9 50% 99 29.62 0.0
05 19:35 SE 10 10.00 Fair CLR 94.1 69.8 45% 100 29.62 0.0
05 19:15 SE 13 G 16 10.00 Fair CLR 95.2 68.9 42% 101 29.62 0.0
05 18:55 SE 12 G 17 10.00 Fair CLR 96.8 68.2 100.8 92.1 39% 102 29.61 0.0
05 18:35 E 8 10.00 Fair CLR 98.2 65.8 35% 102 29.61 0.0
05 18:15 SE 8 10.00 Fair CLR 99.7 65.7 33% 104 29.61 0.0
05 17:55 SE 6 10.00 Fair CLR 99.9 65.5 33% 104 29.61 0.0
05 17:35 SE 8 10.00 Fair CLR 100.6 65.1 31% 104 29.61 0.0
05 17:15 SE 9 10.00 Fair CLR 100.2 64.9 32% 104 29.61 0.0
05 16:55 SE 8 10.00 Fair CLR 100.4 65.1 32% 104 29.61 0.0
05 16:35 S 8 G 18 10.00 Fair CLR 99.5 64.8 32% 103 29.62 0.0
05 16:15 SE 8 10.00 Fair CLR 100.8 65.5 32% 105 29.64 0.0
05 15:55 S 8 10.00 Fair CLR 100.6 65.5 32% 104 29.64 0.0
05 15:35 SE 5 10.00 Fair CLR 99.3 66 34% 103 29.65 0.0
05 15:15 E 8 10.00 Fair CLR 98.6 66 35% 103 29.66 0.0
05 14:55 SE 9 G 16 10.00 Fair CLR 98.4 66.6 35% 103 29.67 0.0
05 14:35 SE 8 10.00 Fair CLR 96.3 66.7 38% 100 29.68 0.0
05 14:15 S 3 G 10 10.00 Fair CLR 95.5 67.1 39% 100 29.69 0.0
05 13:55 S 10 G 17 10.00 Fair CLR 94.6 67.8 42% 99 29.7 0.0
05 13:35 SE 6 10.00 Fair CLR 94.1 67.8 42% 99 29.7 0.0
05 13:15 SE 7 G 20 10.00 Fair CLR 92.8 67.5 43% 97 29.72 0.0
05 12:55 S 9 G 17 10.00 Fair CLR 91.9 68 92.3 70.9 46% 96 29.73 0.0
05 12:35 S 9 G 18 10.00 Fair CLR 91.4 68.2 47% 96 29.74 0.0
05 12:15 SE 10 10.00 Fair CLR 90.5 68.5 49% 95 29.74 0.0
05 11:55 SE 6 G 16 10.00 Fair CLR 88.7 68.9 52% 93 29.75 0.0
05 11:35 SE 7 G 16 10.00 Fair CLR 87.1 69.3 56% 91 29.75 0.0
05 11:15 SE 10 G 16 10.00 Fair CLR 86.2 69.6 58% 91 29.75 0.0
05 10:55 SE 12 G 18 10.00 Fair CLR 84.4 69.8 62% 89 29.76 0.0
05 10:35 SE 9 10.00 Fair CLR 83.5 69.8 64% 88 29.75 0.0
05 10:15 S 12 G 16 10.00 Partly Cloudy SCT019 82 69.8 67% 86 29.76 0.0
05 09:55 SE 8 10.00 Mostly Cloudy BKN017 80.8 70.2 70% 84 29.77 0.0
05 09:15 SE 8 10.00 Mostly Cloudy BKN011 77.4 70.7 80% 79 29.77 0.0
05 08:55 S 7 10.00 Overcast OVC009 75.7 70.7 84% 76 29.77 0.0
05 08:15 SE 5 10.00 Partly Cloudy SCT013 73.6 70.9 91% 29.76 0.0
05 07:55 SE 6 10.00 Mostly Cloudy BKN013 72.7 70.7 94% 29.75 0.0
05 07:35 SE 3 10.00 Overcast OVC013 72 70.3 95% 29.75 0.0
05 07:15 SE 3 7.00 Overcast OVC013 71.6 70.2 95% 29.75 0.0
05 06:55 SE 3 10.00 Mostly Cloudy BKN013 70.9 69.4 74.3 70.9 95% 29.75 0.0
05 06:35 Calm 10.00 Fair CLR 71.2 69.6 95% 29.75 0.0
05 06:15 SE 3 10.00 Fair CLR 71.6 69.4 93% 29.75 0.0
05 05:55 SE 5 10.00 Fair CLR 72 69.4 92% 29.75 0.0
05 05:35 S 7 10.00 Fair CLR 72.5 69.4 90% 29.74 0.0
05 04:55 SE 7 10.00 Fair CLR 72.5 69.3 90% 29.75 0.0
05 04:35 SE 6 10.00 Fair CLR 72.5 69.1 89% 29.76 0.0
05 04:15 SE 5 10.00 Fair CLR 72.7 68.9 88% 29.76 0.0
05 03:55 SE 6 10.00 Fair CLR 72.9 68.5 86% 29.77 0.0
05 03:35 SE 5 10.00 Partly Cloudy SCT017 73.4 68.5 85% 29.77 0.0
05 03:15 SE 6 10.00 Overcast OVC017 74.3 68.5 82% 29.77 0.0
05 02:55 SE 7 10.00 Overcast OVC017 74.3 68.5 82% 29.78 0.0
05 02:35 SE 7 10.00 Overcast OVC017 74.3 68.4 82% 29.79 0.0
05 02:15 SE 7 10.00 Overcast OVC017 74.3 68.2 81% 29.8 0.0
05 01:55 SE 8 10.00 Overcast OVC017 73.9 68 82% 29.8 0.0
05 01:35 SE 7 10.00 Mostly Cloudy BKN017 73.8 68 82% 29.81 0.0
05 01:15 SE 7 10.00 Partly Cloudy SCT017 74.1 67.8 81% 29.82 0.0
05 00:55 SE 7 10.00 Mostly Cloudy BKN017 74.3 67.6 84 74.3 80% 29.81 0.0
05 00:35 SE 9 10.00 Fair CLR 74.5 67.5 79% 29.82 0.0
05 00:15 SE 9 G 16 10.00 Fair CLR 74.8 67.3 77% 29.82 0.0
04 23:55 SE 12 G 16 10.00 Fair CLR 75.2 67.3 77% 76 29.84 0.0
04 23:35 SE 9 G 17 10.00 Fair CLR 75.7 67.3 75% 77 29.84 0.0
04 23:15 SE 12 G 16 10.00 Fair CLR 76.1 67.1 74% 78 29.83 0.0
04 22:55 SE 12 G 17 10.00 Fair CLR 76.8 67.1 72% 79 29.83 0.0
04 22:35 SE 9 10.00 Fair CLR 77.2 66.9 71% 79 29.83 0.0
04 22:15 SE 9 G 17 10.00 Fair CLR 77.9 66.9 69% 80 29.82 0.0
04 21:55 SE 8 G 17 10.00 Fair CLR 78.4 66.9 68% 81 29.82 0.0
04 21:35 SE 10 10.00 Fair CLR 79 66.7 66% 81 29.82 0.0
04 21:15 SE 8 10.00 Fair CLR 79.7 66.9 65% 82 29.81 0.0
04 20:55 SE 6 10.00 Fair CLR 80.1 66.7 64% 82 29.81 0.0
04 20:35 SE 8 10.00 Fair CLR 80.6 66.6 62% 83 29.8 0.0
04 20:15 SE 6 G 16 10.00 Fair CLR 81.5 66.4 60% 84 29.8 0.0
04 19:55 SE 9 G 16 10.00 Fair CLR 82.2 66.2 58% 84 29.79 0.0
04 19:15 SE 8 G 16 10.00 Partly Cloudy SCT041 83.3 66.2 56% 86 29.8 0.0
04 18:55 SE 7 10.00 Partly Cloudy SCT041 84.2 66.2 86.2 79 55% 87 29.8 0.0
04 18:35 SE 10 G 16 10.00 Partly Cloudy SCT041 85.5 65.8 52% 88 29.8 0.0
04 18:15 SE 9 G 18 10.00 Partly Cloudy SCT041 85.6 65.8 52% 88 29.81 0.0
04 17:55 SE 8 10.00 Partly Cloudy SCT041 84.9 65.5 52% 87 29.82 0.0
04 17:35 SE 9 G 16 10.00 Partly Cloudy SCT041 85.6 65.5 51% 88 29.82 0.0
04 17:15 SE 7 G 16 10.00 Mostly Cloudy BKN041 85.1 64.8 51% 87 29.83 0.0
04 16:55 SE 12 10.00 Mostly Cloudy BKN041 85.6 65.3 51% 88 29.83 0.0
04 16:35 SE 8 10.00 Mostly Cloudy BKN041 85.1 65.3 52% 87 29.83 0.0
04 16:15 SE 8 10.00 Partly Cloudy SCT041 85.5 65.1 51% 87 29.83 0.0
04 15:55 SE 10 G 22 10.00 Mostly Cloudy BKN041 84.4 65.5 53% 86 29.85 0.0
04 15:35 SE 14 G 18 10.00 Mostly Cloudy BKN041 85.5 64.6 50% 87 29.85 0.0
04 15:15 SE 10 G 20 10.00 Mostly Cloudy BKN039 83.7 64.8 53% 85 29.87 0.0
04 14:55 SE 12 G 17 10.00 Mostly Cloudy BKN041 83.3 64.6 53% 85 29.88 0.0
04 14:35 SE 9 G 18 10.00 Overcast OVC040 83.5 64.8 53% 85 29.88 0.0
04 14:15 S 9 10.00 Overcast BKN037 OVC044 82.2 64.6 55% 84 29.89 0.0
04 13:55 SE 7 10.00 Overcast OVC035 80.1 64.2 59% 82 29.9 0.0
04 13:35 S 6 10.00 Overcast BKN033 OVC044 80.6 64.4 58% 82 29.9 0.0
04 13:15 S 10 G 16 10.00 Overcast OVC033 79.3 63.7 59% 81 29.91 0.0
04 12:55 S 10 G 16 10.00 Overcast OVC033 79 63.7 79.7 64 60% 81 29.91 0.0
04 12:35 S 6 10.00 Overcast OVC035 78.3 63.9 61% 80 29.92 0.0
04 12:15 S 10 G 17 10.00 Overcast OVC031 77.9 63.5 61% 80 29.92 0.0
04 11:55 S 8 10.00 Overcast BKN031 OVC037 77 63.5 63% 79 29.94 0.0
04 11:35 S 10 10.00 Overcast OVC035 77.4 63.5 62% 79 29.94 0.0
04 11:15 S 13 G 18 10.00 Overcast SCT030 OVC037 77 63.1 62% 79 29.94 0.0
04 10:55 S 12 G 16 10.00 Overcast BKN028 OVC035 76.8 63.5 64% 79 29.94 0.0
04 10:35 S 14 G 18 10.00 Overcast BKN028 OVC035 75.9 63.7 66% 78 29.94 0.0
04 10:15 S 12 G 18 10.00 Overcast SCT024 OVC033 75.7 63.7 66% 78 29.95 0.0
04 09:55 S 13 G 21 10.00 Overcast BKN024 OVC029 75.6 63.9 67% 77 29.95 0.0
04 09:35 S 13 G 18 10.00 Mostly Cloudy BKN020 BKN025 BKN035 74.3 64.4 71% 29.95 0.0
04 09:15 SE 12 G 17 10.00 Mostly Cloudy BKN015 73.6 64.8 74% 29.95 0.0
04 08:55 S 7 10.00 Mostly Cloudy BKN013 72.1 64.4 77% 29.95 0.0
04 08:35 SE 3 10.00 Overcast OVC017 68.9 62.4 80% 29.95 0.0
04 08:15 SE 3 10.00 Overcast OVC019 67.1 61.5 82% 29.95 0.0
04 07:55 SE 5 10.00 Overcast OVC019 66.4 61.2 83% 29.96 0.0
04 07:35 SE 3 10.00 Overcast BKN019 OVC025 65.3 60.4 84% 29.95 0.0
04 07:15 Calm 10.00 Mostly Cloudy BKN019 BKN025 64.4 59.9 85% 29.95 0.0
04 06:55 Calm 10.00 Mostly Cloudy SCT019 BKN025 64 59.7 68.9 62.2 86% 29.95 0.0
04 06:35 Calm 10.00 Overcast SCT020 OVC025 64 59.2 84% 29.95 0.0
04 06:15 Calm 10.00 Mostly Cloudy SCT021 BKN027 63 58.8 86% 29.95 0.0
04 05:55 Calm 10.00 Fair CLR 62.6 58.1 85% 29.96 0.0
04 05:35 Calm 10.00 Fair CLR 62.6 58.1 85% 29.97 0.0
04 05:15 Calm 10.00 Fair CLR 63.5 58.3 83% 29.96 0.0
04 04:55 Calm 10.00 Partly Cloudy SCT021 63.5 58.3 83% 29.97 0.0
04 04:35 Calm 10.00 Fair CLR 63.5 58.1 83% 29.98 0.0
04 04:15 Calm 10.00 Fair CLR 64.4 58.3 81% 29.98 0.0
04 03:55 Calm 10.00 Fair CLR 64.6 58.1 80% 29.98 0.0
04 03:35 E 3 10.00 Fair CLR 65.1 58.1 78% 29.98 0.0
04 03:15 SE 3 10.00 Fair CLR 65.7 58.1 77% 29.98 0.0
04 02:55 SE 3 10.00 Fair CLR 66.2 58.1 75% 29.98 0.0
04 02:35 SE 5 10.00 Fair CLR 67.1 58.1 73% 30 0.0
04 02:15 SE 6 10.00 Fair CLR 67.3 57.7 72% 30 0.0
04 01:55 SE 5 10.00 Fair CLR 68 57.4 69% 30.03 0.0
04 01:35 SE 7 10.00 Fair CLR 68.4 57 67% 30.02 0.0
04 01:15 SE 5 10.00 Fair CLR 68.7 56.3 65% 30.02 0.0
04 00:55 SE 7 10.00 Fair CLR 68.9 55.9 82.8 68.9 64% 30.03 0.0
04 00:35 SE 9 10.00 Fair CLR 69.6 55.6 61% 30.03 0.0
04 00:15 SE 9 10.00 Fair CLR 69.8 55.4 60% 30.04 0.0
03 23:55 SE 8 G 16 10.00 Fair CLR 70.3 55 59% 30.05 0.0
03 23:35 SE 10 G 16 10.00 Fair CLR 70.9 54.9 57% 30.05 0.0
03 23:15 SE 8 G 16 10.00 Fair CLR 71.6 55 56% 30.05 0.0
03 22:55 SE 12 10.00 Fair CLR 72.5 55.2 55% 30.05 0.0
03 22:35 SE 10 G 18 10.00 Fair CLR 73 55.4 54% 30.05 0.0
03 22:15 SE 10 G 16 10.00 Fair CLR 73.8 55.4 53% 30.04 0.0
03 21:55 SE 13 G 17 10.00 Fair CLR 74.8 55.4 51% 30.04 0.0
03 21:35 E 12 G 16 10.00 Fair CLR 75.6 55 49% 78 30.03 0.0
03 21:15 E 8 10.00 Fair CLR 76.5 53.6 45% 78 30.03 0.0
03 20:55 E 6 10.00 Fair CLR 77.5 51.4 40% 78 30.02 0.0
03 20:35 Calm 10.00 Fair CLR 78.1 51.4 40% 79 30.02 0.0
03 20:15 SE 7 10.00 Fair CLR 79.2 51.1 38% 79 30.01 0.0
03 19:55 SE 8 10.00 Fair CLR 80.2 50.7 36% 80 30 0.0
03 19:35 SE 9 10.00 Fair CLR 81.3 50.5 34% 80 30 0.0
03 19:15 SE 8 G 20 10.00 Fair CLR 82.2 50.9 34% 81 30 0.0
03 18:55 SE 12 G 16 10.00 Fair CLR 83.1 51.1 85.3 79.5 33% 82 30 0.0
03 18:35 S 12 G 20 10.00 Partly Cloudy SCT070 83.7 50.9 32% 82 30.01 0.0
03 18:15 SE 7 G 18 10.00 Fair CLR 83.7 50.7 32% 82 30 0.0
03 17:35 SE 10 G 24 10.00 Partly Cloudy SCT070 84.9 50.5 31% 83 30.02 0.0
03 17:15 S 8 G 17 10.00 Fair CLR 84.4 50.2 31% 82 30.03 0.0
03 16:55 SE 5 G 20 10.00 Fair CLR 85.1 50.2 30% 83 30.03 0.0
03 16:35 S 8 G 17 10.00 Fair CLR 84.7 50.4 30% 83 30.05 0.0
03 16:15 S 12 10.00 Partly Cloudy SCT070 84.6 49.6 30% 82 30.06 0.0
03 15:55 E 9 G 20 10.00 Fair CLR 84.2 50 31% 82 30.08 0.0
03 15:35 SE 8 G 16 10.00 Fair CLR 83.8 50 31% 82 30.08 0.0
03 15:15 E 10 G 16 10.00 Fair CLR 84.7 49.8 30% 83 30.09 0.0
03 14:55 E 12 G 18 10.00 Fair CLR 84 49.3 30% 82 30.1 0.0
03 14:35 S 6 G 17 10.00 Fair CLR 82.8 49.3 31% 81 30.11 0.0
03 14:15 E 8 G 16 10.00 Fair CLR 83.1 48.9 30% 81 30.13 0.0
03 13:55 SW 6 10.00 Fair CLR 81.3 48 31% 80 30.15 0.0
03 13:35 SE 8 10.00 Partly Cloudy SCT065 81.9 47.7 30% 80 30.16 0.0
03 13:15 S 6 10.00 Partly Cloudy SCT065 80.4 48.7 33% 80 30.17 0.0
03 12:55 SE 5 10.00 Partly Cloudy SCT065 80.6 47.3 80.6 53.6 31% 80 30.18 0.0
03 12:35 SE 5 10.00 Partly Cloudy SCT065 79.7 49.5 35% 79 30.19 0.0
03 12:15 SE 7 10.00 Fair CLR 78.4 48.4 35% 79 30.19 0.0
03 11:55 SE 6 10.00 Partly Cloudy SCT055 78.3 49.1 36% 79 30.2 0.0
03 11:35 SE 6 10.00 Partly Cloudy SCT049 77.9 50.2 38% 79 30.22 0.0
03 11:15 S 5 10.00 Partly Cloudy SCT047 75.7 51.8 43% 78 30.22 0.0
03 10:55 E 6 10.00 Fair CLR 75 53.4 47% 78 30.22 0.0
03 10:35 E 6 10.00 Fair CLR 74.1 53.1 48% 30.23 0.0
03 10:15 SE 5 10.00 Fair CLR 72.9 53.2 50% 30.22 0.0
03 09:55 SE 3 10.00 Fair CLR 72 54 53% 30.22 0.0
03 09:35 Calm 10.00 Fair CLR 69.8 53.8 57% 30.23 0.0
03 09:15 Calm 10.00 Fair CLR 68.2 54.5 62% 30.22 0.0
03 08:55 Calm 10.00 Fair CLR 66.9 55 66% 30.21 0.0
Date Time (cdt) Wind (mph) Vis. (mi.) Weather Sky Cond. Air Dwpt Max. Min. Relative Humidity Wind Chill (°F) Heat Index (°F) altimeter (in) sea level (mb) 1 hr 3 hr 6 hr
6 hour
Temperature (ºF) Pressure Precipitation (in)